Time;durP1;ratioP1;P1;durP2;ratioP2;P2;SDS_P1;SDS_P2;PMS_P1;PMS_P2;Temp;Humidity;BMP_temperature;BMP_pressure;BME280_temperature;BME280_humidity;BME280_pressure;Samples;Min_cycle;Max_cycle;Signal;HPM_P1;HPM_P2
2024/03/13 00:02:10;;;;;;;34.83;22.75;;;8.70;99.90;;;;;;4975406;28;20475;-86
2024/03/13 00:04:43;;;;;;;32.40;20.92;;;8.70;99.90;;;;;;4971070;28;20027;-85
2024/03/13 00:07:15;;;;;;;;;;;8.70;99.90;;;;;;4975639;28;20030;-85
2024/03/13 00:09:49;;;;;;;33.75;19.52;;;8.70;99.90;;;;;;4978624;28;19906;-85
2024/03/13 00:12:15;;;;;;;35.85;20.50;;;8.70;99.90;;;;;;4969380;28;20521;-84
2024/03/13 00:14:41;;;;;;;37.72;21.38;;;8.70;99.90;;;;;;4979025;28;20053;-85
2024/03/13 00:17:07;;;;;;;35.65;22.10;;;8.70;99.90;;;;;;4978881;28;20125;-85
2024/03/13 00:19:33;;;;;;;36.55;22.85;;;8.70;99.90;;;;;;4972634;28;20117;-84
2024/03/13 00:22:04;;;;;;;35.35;21.60;;;8.70;99.90;;;;;;4979112;28;20026;-84
2024/03/13 00:24:30;;;;;;;32.30;20.67;;;8.70;99.90;;;;;;4978476;28;20046;-84
2024/03/13 00:26:57;;;;;;;36.10;21.42;;;8.80;99.90;;;;;;4977821;28;20034;-84
2024/03/13 00:29:25;;;;;;;32.80;20.17;;;8.70;99.90;;;;;;4979064;28;20034;-84
2024/03/13 00:31:51;;;;;;;40.05;21.92;;;8.80;99.90;;;;;;4981947;28;20038;-84
2024/03/13 00:34:18;;;;;;;32.08;19.83;;;8.80;99.90;;;;;;4974661;28;20023;-84
2024/03/13 00:36:43;;;;;;;33.78;21.50;;;8.80;99.90;;;;;;4978831;28;20054;-84
2024/03/13 00:39:10;;;;;;;30.65;18.67;;;8.80;99.90;;;;;;4978145;28;20074;-84
2024/03/13 00:41:36;;;;;;;27.83;18.20;;;8.80;99.90;;;;;;4987634;28;20029;-84
2024/03/13 00:44:03;;;;;;;31.63;18.40;;;8.80;99.90;;;;;;4970605;28;20431;-84
2024/03/13 00:46:29;;;;;;;32.45;19.38;;;8.80;99.90;;;;;;4978707;28;20030;-84
2024/03/13 00:48:54;;;;;;;34.45;19.92;;;8.80;99.90;;;;;;4978127;28;20085;-84
2024/03/13 00:51:20;;;;;;;27.35;18.48;;;8.90;99.90;;;;;;4975094;28;20027;-84
2024/03/13 00:53:46;;;;;;;35.10;18.95;;;8.80;99.90;;;;;;4979384;28;20061;-84
2024/03/13 00:56:12;;;;;;;32.78;19.77;;;8.90;99.90;;;;;;4977933;28;20030;-84
2024/03/13 00:58:37;;;;;;;30.88;18.38;;;8.80;99.90;;;;;;4978175;28;20054;-84
2024/03/13 01:01:03;;;;;;;32.45;19.70;;;8.90;99.90;;;;;;4972325;28;20077;-84
2024/03/13 01:03:29;;;;;;;31.10;18.67;;;8.90;99.90;;;;;;4968824;28;20042;-84
2024/03/13 01:05:56;;;;;;;28.13;17.83;;;8.90;99.90;;;;;;4976721;28;20034;-83
2024/03/13 01:08:23;;;;;;;27.00;16.15;;;8.90;99.90;;;;;;4977867;28;20042;-83
2024/03/13 01:10:52;;;;;;;24.80;16.60;;;8.90;99.90;;;;;;4976250;28;20030;-84
2024/03/13 01:13:19;;;;;;;28.42;16.83;;;8.90;99.90;;;;;;4974493;28;20042;-83
2024/03/13 01:15:45;;;;;;;25.83;15.98;;;8.90;99.90;;;;;;4969777;28;20515;-84
2024/03/13 01:18:11;;;;;;;27.10;16.77;;;8.90;99.90;;;;;;4973505;28;20034;-84
2024/03/13 01:20:37;;;;;;;26.17;16.15;;;8.90;99.90;;;;;;4978009;28;20529;-84
2024/03/13 01:23:02;;;;;;;26.00;15.52;;;8.90;99.90;;;;;;4973327;28;20110;-83
2024/03/13 01:25:28;;;;;;;24.38;16.02;;;9.00;99.90;;;;;;4972856;28;20057;-85
2024/03/13 01:27:54;;;;;;;27.98;15.75;;;9.00;99.90;;;;;;4977716;28;20379;-85
2024/03/13 01:30:21;;;;;;;24.58;15.07;;;9.00;99.90;;;;;;4978305;28;20064;-84
2024/03/13 01:32:47;;;;;;;26.95;15.98;;;9.00;99.90;;;;;;4977502;28;20023;-84
2024/03/13 01:35:13;;;;;;;25.30;15.15;;;9.00;99.90;;;;;;4990434;28;20509;-84
2024/03/13 01:40:28;;;;;;;26.17;15.85;;;9.00;99.90;;;;;;4987619;28;20505;-84
2024/03/13 01:56:59;;;;;;;25.98;15.00;;;9.00;99.90;;;;;;4994956;28;20454;-84
2024/03/13 01:59:48;;;;;;;27.92;15.05;;;9.00;99.90;;;;;;4967016;28;20042;-84
2024/03/13 02:02:24;;;;;;;26.00;14.95;;;9.00;99.90;;;;;;4971346;28;20046;-84
2024/03/13 02:04:54;;;;;;;29.95;15.95;;;9.00;99.90;;;;;;4974480;28;20034;-84
2024/03/13 02:07:22;;;;;;;31.52;16.52;;;9.10;99.90;;;;;;4974104;28;20035;-84
2024/03/13 02:09:50;;;;;;;35.78;16.70;;;9.00;99.90;;;;;;4968939;28;20030;-84
2024/03/13 02:12:16;;;;;;;30.83;15.63;;;9.10;99.90;;;;;;4968395;28;20045;-84
2024/03/13 02:14:42;;;;;;;29.25;15.38;;;9.10;99.90;;;;;;4971342;28;20026;-84
2024/03/13 02:17:09;;;;;;;30.63;15.32;;;9.10;99.90;;;;;;4967918;28;20479;-84
2024/03/13 02:19:38;;;;;;;30.52;15.32;;;9.10;99.90;;;;;;4973559;28;20033;-84
2024/03/13 02:22:05;;;;;;;29.92;15.80;;;9.10;99.90;;;;;;4976305;28;20025;-84
2024/03/13 02:24:32;;;;;;;34.35;15.98;;;9.10;99.90;;;;;;4975546;28;20042;-84
2024/03/13 02:26:57;;;;;;;41.40;15.82;;;9.10;99.90;;;;;;4972548;28;20030;-84
2024/03/13 02:29:23;;;;;;;37.45;16.23;;;9.20;99.90;;;;;;4968618;28;20034;-84
2024/03/13 02:31:49;;;;;;;35.95;16.80;;;9.20;99.90;;;;;;4973112;28;20022;-85
2024/03/13 02:34:16;;;;;;;38.22;17.23;;;9.10;99.90;;;;;;4966903;28;20036;-84
2024/03/13 02:36:42;;;;;;;54.28;18.35;;;9.20;99.90;;;;;;4973502;28;20454;-84
2024/03/13 02:39:10;;;;;;;45.15;17.33;;;9.20;99.90;;;;;;4968933;28;20031;-85
2024/03/13 02:41:36;;;;;;;41.58;17.77;;;9.20;99.90;;;;;;4973467;28;20479;-84
2024/03/13 02:44:02;;;;;;;40.78;17.38;;;9.20;99.90;;;;;;4975989;28;20038;-84
2024/03/13 02:46:28;;;;;;;51.67;18.10;;;9.20;99.90;;;;;;4971939;28;20026;-84
2024/03/13 02:48:54;;;;;;;46.92;18.83;;;9.20;99.90;;;;;;4976295;28;20110;-84
2024/03/13 02:51:20;;;;;;;43.20;18.13;;;9.20;99.90;;;;;;4974888;28;20463;-84
2024/03/13 02:53:46;;;;;;;49.03;18.73;;;9.30;99.90;;;;;;4975913;28;20407;-84
2024/03/13 02:56:12;;;;;;;46.13;20.48;;;9.30;99.90;;;;;;4970682;28;20026;-84
2024/03/13 02:58:37;;;;;;;49.50;20.27;;;9.30;99.90;;;;;;4971376;28;20503;-84
2024/03/13 03:01:03;;;;;;;52.92;19.23;;;9.30;99.90;;;;;;4975660;28;20041;-84
2024/03/13 03:03:31;;;;;;;54.42;20.05;;;9.40;99.90;;;;;;4975450;28;20074;-84
2024/03/13 03:05:57;;;;;;;59.65;21.00;;;9.40;99.90;;;;;;4987461;28;20030;-83
2024/03/13 03:08:22;;;;;;;59.20;20.95;;;9.40;99.90;;;;;;4965311;28;20026;-84
2024/03/13 03:10:48;;;;;;;53.05;20.23;;;9.40;99.90;;;;;;4969692;28;20130;-84
2024/03/13 03:13:14;;;;;;;61.90;21.13;;;9.40;99.90;;;;;;4971415;28;20034;-84
2024/03/13 03:15:42;;;;;;;55.10;21.55;;;9.50;99.90;;;;;;4970771;28;20046;-84
2024/03/13 03:18:11;;;;;;;62.03;22.00;;;9.50;99.90;;;;;;4971499;28;20113;-84
2024/03/13 03:20:37;;;;;;;48.58;21.45;;;9.50;99.90;;;;;;4983909;28;20046;-84
2024/03/13 03:23:03;;;;;;;54.83;20.13;;;9.50;99.90;;;;;;4987882;28;20034;-84
2024/03/13 03:25:29;;;;;;;54.17;20.48;;;9.60;99.90;;;;;;4973169;28;20058;-84
2024/03/13 03:27:57;;;;;;;59.78;21.90;;;9.60;99.90;;;;;;4970636;28;20062;-84
2024/03/13 03:30:25;;;;;;;58.55;22.73;;;9.60;99.90;;;;;;4967826;28;20030;-84
2024/03/13 03:32:51;;;;;;;58.90;22.30;;;9.70;99.90;;;;;;4977618;28;20109;-84
2024/03/13 03:35:18;;;;;;;58.60;21.95;;;9.70;99.90;;;;;;4970687;28;20602;-83
2024/03/13 03:37:44;;;;;;;52.47;21.15;;;9.70;99.90;;;;;;4974962;28;20042;-84
2024/03/13 03:40:13;;;;;;;54.60;22.45;;;9.80;99.90;;;;;;4974364;28;20026;-84
2024/03/13 03:42:38;;;;;;;52.47;20.52;;;9.80;99.90;;;;;;4987311;28;20109;-84
2024/03/13 03:45:04;;;;;;;53.63;20.75;;;9.80;99.90;;;;;;4969549;28;20554;-84
2024/03/13 03:47:30;;;;;;;51.53;20.48;;;9.80;99.90;;;;;;4974926;28;20050;-84
2024/03/13 03:49:56;;;;;;;52.72;20.77;;;9.90;99.90;;;;;;4970898;28;20113;-84
2024/03/13 03:52:24;;;;;;;49.15;19.73;;;9.90;99.90;;;;;;4957291;28;20105;-83
2024/03/13 03:54:50;;;;;;;40.60;19.02;;;9.90;99.90;;;;;;4975040;28;20456;-84
2024/03/13 03:57:16;;;;;;;47.08;19.80;;;9.90;99.90;;;;;;4972579;28;20042;-84
2024/03/13 03:59:41;;;;;;;45.33;17.83;;;10.00;99.90;;;;;;4965094;28;20077;-84
2024/03/13 04:02:07;;;;;;;29.50;14.77;;;10.00;99.90;;;;;;4962731;28;20541;-84
2024/03/13 04:04:32;;;;;;;34.78;15.52;;;10.00;99.90;;;;;;4970610;28;20125;-84
2024/03/13 04:06:58;;;;;;;38.35;15.05;;;10.10;99.90;;;;;;4975231;28;20437;-84
2024/03/13 04:09:24;;;;;;;34.33;15.00;;;10.10;99.90;;;;;;4970659;28;20033;-84
2024/03/13 04:11:53;;;;;;;27.17;12.85;;;10.10;99.90;;;;;;4971539;28;20022;-84
2024/03/13 04:14:19;;;;;;;26.98;12.23;;;10.10;99.90;;;;;;4970540;28;20478;-84
2024/03/13 04:16:45;;;;;;;27.88;12.30;;;10.20;99.90;;;;;;4984759;28;20108;-84
2024/03/13 04:19:11;;;;;;;33.35;12.65;;;10.20;99.90;;;;;;4974451;28;20041;-84
2024/03/13 04:21:40;;;;;;;30.00;13.52;;;10.20;99.90;;;;;;4967617;28;20128;-85
2024/03/13 04:24:09;;;;;;;35.97;13.10;;;10.20;99.90;;;;;;4967375;28;20578;-85
2024/03/13 04:26:41;;;;;;;34.85;13.00;;;10.20;99.90;;;;;;4974277;28;20030;-84
2024/03/13 04:29:07;;;;;;;;;;;10.20;99.90;;;;;;4974564;28;20226;-85
2024/03/13 04:31:33;;;;;;;25.30;12.18;;;10.20;99.90;;;;;;4993036;28;20013;-84
2024/03/13 04:33:59;;;;;;;29.30;12.80;;;10.20;99.90;;;;;;4975180;28;20030;-85
2024/03/13 04:36:25;;;;;;;27.90;13.32;;;10.20;99.90;;;;;;4974718;28;20019;-85
2024/03/13 04:38:53;;;;;;;31.58;14.18;;;10.20;99.90;;;;;;4970967;28;20206;-85
2024/03/13 04:41:19;;;;;;;37.35;15.48;;;10.30;99.90;;;;;;4985098;28;20026;-84
2024/03/13 04:43:48;;;;;;;24.80;14.07;;;10.30;99.90;;;;;;4974588;28;20034;-84
2024/03/13 04:46:16;;;;;;;36.05;14.90;;;10.20;99.90;;;;;;4964970;28;20022;-85
2024/03/13 04:48:44;;;;;;;29.20;14.63;;;10.30;99.90;;;;;;4971125;28;20117;-85
2024/03/13 04:51:10;;;;;;;28.48;12.75;;;10.30;99.90;;;;;;4974505;28;20077;-84
2024/03/13 04:53:36;;;;;;;25.83;12.43;;;10.30;99.90;;;;;;4974126;28;20479;-84
2024/03/13 04:56:03;;;;;;;24.23;12.00;;;10.30;99.90;;;;;;4978440;28;20041;-84
2024/03/13 04:58:29;;;;;;;26.63;11.85;;;10.30;99.90;;;;;;4981051;28;20081;-84
2024/03/13 05:00:55;;;;;;;22.85;10.57;;;10.30;99.90;;;;;;4975967;28;20039;-85
2024/03/13 05:03:20;;;;;;;22.42;11.13;;;10.40;99.90;;;;;;4977803;28;20069;-84
2024/03/13 05:05:46;;;;;;;18.65;10.15;;;10.40;99.90;;;;;;4977997;28;20073;-85
2024/03/13 05:08:13;;;;;;;24.13;10.48;;;10.40;99.90;;;;;;4970647;28;20027;-84
2024/03/13 05:10:39;;;;;;;22.88;10.93;;;10.30;99.90;;;;;;4976953;28;20045;-85
2024/03/13 05:13:04;;;;;;;23.95;11.85;;;10.40;99.90;;;;;;4968403;28;20019;-84
2024/03/13 05:15:30;;;;;;;21.73;10.70;;;10.40;99.90;;;;;;4977247;28;20031;-85
2024/03/13 05:17:57;;;;;;;19.40;10.25;;;10.40;99.90;;;;;;4985654;28;20026;-84
2024/03/13 05:20:23;;;;;;;17.27;9.85;;;10.40;99.90;;;;;;4975444;28;20037;-84
2024/03/13 05:22:48;;;;;;;21.35;10.40;;;10.30;99.90;;;;;;4969731;28;20031;-84
2024/03/13 05:25:17;;;;;;;17.45;9.43;;;10.30;99.90;;;;;;4975139;28;20038;-85
2024/03/13 05:27:46;;;;;;;21.58;10.52;;;10.30;99.90;;;;;;4988356;28;20606;-85
2024/03/13 05:30:12;;;;;;;21.48;10.20;;;10.40;99.90;;;;;;4976918;28;20447;-84
2024/03/13 05:32:37;;;;;;;19.75;10.52;;;10.40;99.90;;;;;;4970778;28;20081;-84
2024/03/13 05:35:06;;;;;;;18.05;9.95;;;10.40;99.90;;;;;;4976936;28;20117;-84
2024/03/13 05:37:32;;;;;;;21.23;10.98;;;10.40;99.90;;;;;;4968969;28;20031;-84
2024/03/13 05:39:59;;;;;;;22.10;10.65;;;10.40;99.90;;;;;;4977564;28;20054;-84
2024/03/13 05:42:25;;;;;;;23.55;9.55;;;10.40;99.90;;;;;;4975797;28;20034;-84
2024/03/13 05:44:50;;;;;;;18.73;8.82;;;10.40;99.90;;;;;;4977773;28;20038;-84
2024/03/13 05:47:16;;;;;;;16.58;8.88;;;10.50;99.90;;;;;;4974884;28;20027;-83
2024/03/13 05:49:41;;;;;;;17.23;8.70;;;10.50;99.90;;;;;;4973301;28;20065;-84
2024/03/13 05:52:07;;;;;;;14.57;8.07;;;10.50;99.90;;;;;;4991250;28;20026;-84
2024/03/13 05:54:33;;;;;;;18.70;8.90;;;10.50;99.90;;;;;;4975370;28;20041;-84
2024/03/13 05:56:59;;;;;;;19.42;10.43;;;10.50;99.90;;;;;;4994746;28;20640;-84
2024/03/13 05:59:25;;;;;;;21.23;11.20;;;10.50;99.90;;;;;;4977428;28;20133;-84
2024/03/13 06:01:51;;;;;;;20.73;10.48;;;10.50;99.90;;;;;;4972551;28;20065;-84
2024/03/13 06:04:20;;;;;;;21.65;11.02;;;10.50;99.90;;;;;;4986064;28;20062;-84
2024/03/13 06:06:46;;;;;;;20.42;10.25;;;10.50;99.90;;;;;;4969052;28;20073;-84
2024/03/13 06:09:11;;;;;;;21.60;9.88;;;10.50;99.90;;;;;;4976748;28;20058;-84
2024/03/13 06:11:37;;;;;;;22.77;10.63;;;10.50;99.90;;;;;;4969689;28;20058;-84
2024/03/13 06:14:03;;;;;;;21.95;11.25;;;10.50;99.90;;;;;;4977132;28;20031;-84
2024/03/13 06:16:30;;;;;;;22.42;10.63;;;10.50;99.90;;;;;;4977414;28;20110;-84
2024/03/13 06:18:56;;;;;;;25.33;10.60;;;10.50;99.90;;;;;;4975102;28;20026;-84
2024/03/13 06:21:21;;;;;;;18.80;10.00;;;10.50;99.90;;;;;;4975925;28;20037;-84
2024/03/13 06:23:52;;;;;;;21.70;10.05;;;10.50;99.90;;;;;;4964283;28;20049;-85
2024/03/13 06:26:18;;;;;;;18.48;9.52;;;10.50;99.90;;;;;;4963942;28;20023;-84
2024/03/13 06:31:33;;;;;;;18.67;9.65;;;10.60;99.90;;;;;;4983408;28;20450;-85
2024/03/13 06:33:59;;;;;;;19.90;9.38;;;10.50;99.90;;;;;;4976600;28;20033;-84
2024/03/13 06:36:25;;;;;;;18.88;8.45;;;10.50;99.90;;;;;;4963719;28;20023;-84
2024/03/13 06:38:50;;;;;;;20.38;10.18;;;10.50;99.90;;;;;;4965439;28;20459;-85
2024/03/13 06:41:16;;;;;;;19.98;8.93;;;10.50;99.90;;;;;;4975137;28;20034;-84
2024/03/13 06:43:41;;;;;;;20.23;9.38;;;10.50;99.90;;;;;;4973789;28;20046;-85
2024/03/13 06:46:07;;;;;;;18.60;8.90;;;10.50;99.90;;;;;;4984584;28;20534;-84
2024/03/13 06:48:34;;;;;;;22.38;9.93;;;10.50;99.90;;;;;;4974331;28;20169;-84
2024/03/13 06:51:05;;;;;;;22.52;10.05;;;10.60;99.90;;;;;;4976814;28;20399;-84
2024/03/13 06:53:31;;;;;;;22.87;10.13;;;10.60;99.90;;;;;;4963531;28;20049;-85
2024/03/13 06:55:57;;;;;;;29.55;12.70;;;10.60;99.90;;;;;;4970592;28;20290;-85
2024/03/13 06:58:22;;;;;;;26.23;11.23;;;10.60;99.90;;;;;;4963896;28;20033;-84
2024/03/13 07:00:48;;;;;;;30.23;12.35;;;10.60;99.90;;;;;;4976859;28;20066;-84
2024/03/13 07:03:13;;;;;;;27.83;12.02;;;10.60;99.90;;;;;;4972673;28;20023;-84
2024/03/13 07:05:40;;;;;;;29.13;12.68;;;10.60;99.90;;;;;;4977033;28;20077;-84
2024/03/13 07:08:06;;;;;;;34.60;14.65;;;10.60;99.90;;;;;;4965714;28;20395;-85
2024/03/13 07:10:32;;;;;;;29.25;13.48;;;10.60;99.90;;;;;;4971569;28;20040;-84
2024/03/13 07:12:58;;;;;;;33.22;15.73;;;10.60;99.90;;;;;;4975603;28;20023;-84
2024/03/13 07:15:23;;;;;;;37.42;14.63;;;10.60;99.90;;;;;;4970460;28;20038;-85
2024/03/13 07:17:49;;;;;;;34.28;15.00;;;10.70;99.90;;;;;;4974315;28;20053;-85
2024/03/13 07:20:15;;;;;;;38.25;15.25;;;10.70;99.90;;;;;;4982852;28;20029;-84
2024/03/13 07:22:41;;;;;;;36.28;15.15;;;10.70;99.90;;;;;;4975712;28;20034;-85
2024/03/13 07:25:09;;;;;;;40.45;16.38;;;10.70;99.90;;;;;;4959201;28;20039;-84
2024/03/13 07:27:38;;;;;;;44.17;19.20;;;10.70;99.90;;;;;;4977182;28;20506;-85
2024/03/13 07:30:07;;;;;;;33.60;16.60;;;10.70;99.90;;;;;;4977410;28;20120;-84
2024/03/13 07:32:32;;;;;;;37.38;16.77;;;10.70;99.90;;;;;;4972079;28;20033;-85
2024/03/13 07:34:58;;;;;;;41.55;18.65;;;10.80;99.90;;;;;;4995458;28;20030;-85
2024/03/13 07:37:25;;;;;;;38.88;18.35;;;10.80;99.90;;;;;;4972695;28;20030;-84
2024/03/13 07:39:52;;;;;;;38.05;16.92;;;10.90;99.90;;;;;;4968729;28;20027;-85
2024/03/13 07:42:18;;;;;;;51.47;19.08;;;10.90;99.90;;;;;;4977955;28;20543;-84
2024/03/13 07:44:45;;;;;;;45.80;19.48;;;10.90;99.90;;;;;;4974654;28;20125;-84
2024/03/13 07:47:11;;;;;;;47.03;18.17;;;11.00;99.90;;;;;;4971137;28;20061;-84
2024/03/13 07:49:37;;;;;;;49.75;19.90;;;11.00;99.90;;;;;;4973890;28;20062;-85
2024/03/13 07:52:02;;;;;;;38.35;17.80;;;11.00;99.90;;;;;;4984799;28;20058;-85
2024/03/13 07:54:29;;;;;;;50.33;18.95;;;11.00;99.90;;;;;;4975379;28;20121;-85
2024/03/13 07:56:54;;;;;;;40.83;15.95;;;11.00;99.90;;;;;;4975185;28;20026;-85
2024/03/13 07:59:25;;;;;;;43.30;16.75;;;11.10;99.90;;;;;;4969773;28;20062;-85
2024/03/13 08:01:51;;;;;;;43.58;16.58;;;11.20;99.90;;;;;;4964826;28;20321;-85
2024/03/13 08:04:16;;;;;;;33.35;15.05;;;11.20;99.90;;;;;;4974404;28;22024;-83
2024/03/13 08:06:42;;;;;;;33.78;13.23;;;11.20;99.90;;;;;;4960050;28;20126;-85
2024/03/13 08:09:08;;;;;;;31.10;11.90;;;11.20;99.90;;;;;;4974603;28;20018;-85
2024/03/13 08:11:33;;;;;;;27.85;11.50;;;11.20;99.90;;;;;;4975312;28;20029;-84
2024/03/13 08:14:01;;;;;;;31.73;11.05;;;11.20;99.90;;;;;;4969543;28;20022;-84
2024/03/13 08:16:27;;;;;;;29.10;11.50;;;11.20;99.90;;;;;;4970697;28;20023;-84
2024/03/13 08:18:53;;;;;;;23.58;10.82;;;11.30;99.90;;;;;;4977134;28;20073;-84
2024/03/13 08:21:18;;;;;;;29.35;11.13;;;11.30;99.90;;;;;;4991395;28;20103;-85
2024/03/13 08:23:47;;;;;;;25.15;11.02;;;11.30;99.90;;;;;;4967261;28;20046;-85
2024/03/13 08:26:13;;;;;;;27.48;11.07;;;11.30;99.90;;;;;;4962986;28;20434;-85
2024/03/13 08:28:40;;;;;;;26.92;10.70;;;11.40;99.90;;;;;;4970826;28;20027;-85
2024/03/13 08:31:06;;;;;;;29.45;10.50;;;11.40;99.90;;;;;;4974546;28;20026;-84
2024/03/13 08:33:32;;;;;;;25.48;10.98;;;11.40;99.90;;;;;;4967268;28;20041;-84
2024/03/13 08:35:59;;;;;;;26.75;11.90;;;11.40;99.90;;;;;;4980098;28;20030;-84
2024/03/13 08:38:24;;;;;;;25.08;10.68;;;11.40;99.90;;;;;;4997467;28;20038;-84
2024/03/13 08:40:50;;;;;;;27.88;10.98;;;11.30;99.90;;;;;;4978755;28;20509;-84
2024/03/13 08:43:19;;;;;;;24.08;9.65;;;11.30;99.90;;;;;;4975215;28;20157;-84
2024/03/13 08:45:45;;;;;;;21.98;10.20;;;11.30;99.90;;;;;;4977280;28;20042;-85
2024/03/13 08:48:11;;;;;;;24.30;9.77;;;11.30;99.90;;;;;;4971311;28;20022;-85
2024/03/13 08:50:37;;;;;;;23.30;10.63;;;11.40;99.90;;;;;;4978489;28;20041;-84
2024/03/13 08:53:03;;;;;;;25.17;10.55;;;11.40;99.90;;;;;;4979084;28;20030;-84
2024/03/13 08:55:32;;;;;;;21.15;9.63;;;11.40;99.90;;;;;;4979652;28;20097;-84
2024/03/13 08:57:58;;;;;;;26.05;11.05;;;11.40;99.90;;;;;;4980134;28;20063;-84
2024/03/13 09:00:24;;;;;;;24.38;11.27;;;11.50;99.90;;;;;;4979628;28;20134;-84
2024/03/13 09:02:55;;;;;;;26.65;11.02;;;11.60;99.90;;;;;;4984409;28;20137;-84
2024/03/13 09:05:21;;;;;;;27.50;11.70;;;11.70;99.90;;;;;;4976209;28;20045;-84
2024/03/13 09:07:46;;;;;;;26.02;11.75;;;11.70;99.90;;;;;;4977606;28;20105;-84
2024/03/13 09:10:12;;;;;;;27.17;11.90;;;11.80;99.90;;;;;;4980199;28;20422;-84
2024/03/13 09:12:38;;;;;;;23.98;11.27;;;11.80;99.90;;;;;;4971923;28;20035;-84
2024/03/13 09:15:05;;;;;;;30.90;12.75;;;11.90;99.90;;;;;;4965661;28;20022;-84
2024/03/13 09:17:31;;;;;;;23.05;11.35;;;11.90;99.90;;;;;;4975305;28;20035;-84
2024/03/13 09:19:56;;;;;;;26.50;11.98;;;11.90;99.90;;;;;;4968957;28;20030;-84
2024/03/13 09:22:22;;;;;;;26.25;11.80;;;11.90;99.90;;;;;;4978119;28;20498;-85
2024/03/13 09:24:48;;;;;;;26.05;11.68;;;11.90;99.90;;;;;;4995099;28;20038;-84
2024/03/13 09:27:14;;;;;;;27.23;13.30;;;12.00;99.90;;;;;;4979415;28;20113;-84
2024/03/13 09:29:39;;;;;;;28.02;13.00;;;12.00;99.90;;;;;;4992610;28;20042;-84
2024/03/13 09:32:05;;;;;;;31.67;14.65;;;12.10;99.90;;;;;;4978119;28;20045;-84
2024/03/13 09:34:32;;;;;;;35.25;16.35;;;12.20;99.90;;;;;;4976130;28;20030;-84
2024/03/13 09:37:03;;;;;;;37.58;16.73;;;12.20;99.90;;;;;;4976206;28;20126;-84
2024/03/13 09:39:29;;;;;;;41.72;18.50;;;12.30;99.90;;;;;;4972465;28;20428;-84
2024/03/13 09:41:57;;;;;;;41.85;20.00;;;12.30;99.90;;;;;;4975932;28;20033;-84
2024/03/13 09:44:23;;;;;;;42.63;19.95;;;12.30;99.90;;;;;;4987642;28;20046;-84
2024/03/13 09:46:51;;;;;;;45.55;19.13;;;12.20;99.90;;;;;;4977966;28;20057;-85
2024/03/13 09:49:18;;;;;;;45.30;19.27;;;12.20;99.90;;;;;;4973257;28;20052;-84
2024/03/13 09:51:45;;;;;;;42.13;18.77;;;12.20;99.90;;;;;;4978173;28;20077;-85
2024/03/13 09:54:16;;;;;;;41.53;19.25;;;12.10;99.90;;;;;;4975921;28;20486;-85
2024/03/13 09:56:43;;;;;;;43.70;18.52;;;12.10;99.90;;;;;;4975553;28;20027;-85
2024/03/13 09:59:09;;;;;;;39.65;17.38;;;12.10;99.90;;;;;;4971766;28;20049;-84
2024/03/13 10:01:47;;;;;;;48.88;20.38;;;12.00;99.90;;;;;;4971556;28;20030;-85
2024/03/13 10:04:20;;;;;;;44.15;18.83;;;12.00;99.90;;;;;;4969035;28;20057;-84
2024/03/13 10:06:53;;;;;;;43.63;19.30;;;11.90;99.90;;;;;;4971797;28;20053;-84
2024/03/13 10:09:23;;;;;;;45.45;19.20;;;11.90;99.90;;;;;;4971164;28;20038;-85
2024/03/13 10:11:51;;;;;;;55.45;21.52;;;11.80;99.90;;;;;;4970189;28;20014;-84
2024/03/13 10:14:22;;;;;;;47.10;21.35;;;11.70;99.90;;;;;;4969593;28;20026;-84
2024/03/13 10:16:52;;;;;;;49.95;21.33;;;11.70;99.90;;;;;;4975090;28;20091;-84
2024/03/13 10:19:20;;;;;;;46.42;21.15;;;11.60;99.90;;;;;;4972023;28;20502;-85
2024/03/13 10:21:47;;;;;;;50.72;22.48;;;11.60;99.90;;;;;;4974275;28;24822;-84
2024/03/13 10:24:15;;;;;;;50.88;22.63;;;11.50;99.90;;;;;;4975975;28;20034;-84
2024/03/13 10:26:45;;;;;;;51.17;21.00;;;11.60;99.90;;;;;;4971286;28;20058;-84
2024/03/13 10:29:11;;;;;;;46.72;20.23;;;11.60;99.90;;;;;;4974922;28;20027;-84
2024/03/13 10:31:38;;;;;;;46.25;18.95;;;11.60;99.90;;;;;;4963062;28;20030;-84
2024/03/13 10:34:08;;;;;;;50.17;20.50;;;11.60;99.90;;;;;;4976726;28;20050;-84
2024/03/13 10:36:34;;;;;;;43.72;18.63;;;11.60;99.90;;;;;;4978104;28;20033;-85
2024/03/13 10:39:05;;;;;;;43.15;19.27;;;11.70;99.90;;;;;;4976146;28;20027;-84
2024/03/13 10:41:30;;;;;;;44.22;18.63;;;11.70;99.90;;;;;;4967122;28;20502;-84
2024/03/13 10:43:56;;;;;;;41.63;19.35;;;11.70;99.90;;;;;;4977100;28;20034;-85
2024/03/13 10:46:26;;;;;;;44.70;19.05;;;11.80;99.90;;;;;;4990010;28;20085;-84
2024/03/13 10:48:52;;;;;;;39.40;19.40;;;11.80;99.90;;;;;;4975279;28;20497;-84
2024/03/13 10:51:18;;;;;;;38.83;20.23;;;11.80;99.90;;;;;;4973973;28;20022;-84
2024/03/13 10:53:44;;;;;;;45.05;20.38;;;11.90;99.90;;;;;;4988789;28;20037;-85
2024/03/13 10:56:13;;;;;;;43.25;20.00;;;12.00;99.90;;;;;;4977996;28;20367;-84
2024/03/13 10:58:39;;;;;;;45.33;20.13;;;12.00;99.90;;;;;;4979166;28;20034;-85
2024/03/13 11:01:05;;;;;;;43.10;20.90;;;12.00;99.90;;;;;;4975020;28;20026;-85
2024/03/13 11:03:31;;;;;;;39.40;20.50;;;12.00;99.90;;;;;;4965615;28;22032;-84
2024/03/13 11:05:57;;;;;;;40.40;20.98;;;12.10;99.90;;;;;;4971525;28;20125;-84
2024/03/13 11:08:26;;;;;;;46.55;21.00;;;12.20;99.90;;;;;;4974853;28;20038;-85
2024/03/13 11:10:54;;;;;;;45.40;21.15;;;12.20;99.90;;;;;;4969251;28;20035;-85
2024/03/13 11:13:24;;;;;;;44.20;21.33;;;12.30;99.90;;;;;;4977105;28;20062;-85
2024/03/13 11:15:52;;;;;;;44.45;22.00;;;12.30;99.90;;;;;;4977403;28;20034;-85
2024/03/13 11:18:21;;;;;;;43.10;22.23;;;12.30;99.90;;;;;;4975343;28;20019;-83
2024/03/13 11:21:07;;;;;;;46.53;22.92;;;12.30;99.90;;;;;;4974631;28;20026;-85
2024/03/13 11:23:43;;;;;;;49.25;23.83;;;12.30;99.90;;;;;;4975660;28;20038;-85
2024/03/13 11:26:12;;;;;;;43.80;21.75;;;12.20;99.90;;;;;;4970347;28;20180;-85
2024/03/13 11:28:38;;;;;;;42.05;21.63;;;12.20;99.90;;;;;;4968147;28;20113;-84
2024/03/13 11:31:05;;;;;;;44.30;22.48;;;12.20;99.90;;;;;;4972332;28;20447;-84
2024/03/13 11:33:31;;;;;;;46.28;22.20;;;12.20;99.90;;;;;;4971690;28;20058;-85
2024/03/13 11:35:58;;;;;;;43.90;22.35;;;12.10;99.90;;;;;;4968956;28;20093;-85
2024/03/13 11:38:24;;;;;;;48.35;23.17;;;12.10;99.90;;;;;;4973807;28;20046;-84
2024/03/13 11:40:52;;;;;;;48.65;23.48;;;12.10;99.90;;;;;;4972941;28;20061;-85
2024/03/13 11:43:22;;;;;;;41.92;21.35;;;12.00;99.90;;;;;;4968023;28;20034;-84
2024/03/13 11:45:47;;;;;;;48.75;25.02;;;12.10;99.90;;;;;;4974892;28;20030;-84
2024/03/13 11:48:19;;;;;;;44.72;22.70;;;12.10;99.90;;;;;;4991455;28;20052;-84
2024/03/13 11:51:00;;;;;;;42.83;23.50;;;12.10;99.90;;;;;;4974698;28;20034;-84
2024/03/13 11:53:26;;;;;;;51.47;25.15;;;12.10;99.90;;;;;;4975545;28;20386;-84
2024/03/13 11:55:55;;;;;;;39.20;23.10;;;12.10;99.90;;;;;;4973533;28;20026;-84
2024/03/13 11:58:21;;;;;;;46.83;23.95;;;12.10;99.90;;;;;;4974270;28;20033;-84
2024/03/13 12:00:47;;;;;;;44.25;22.45;;;12.20;99.90;;;;;;4983674;28;20119;-84
2024/03/13 12:03:20;;;;;;;46.50;23.13;;;12.10;99.90;;;;;;4976623;28;20057;-84
2024/03/13 12:05:46;;;;;;;42.60;23.45;;;12.10;99.90;;;;;;4986729;28;20084;-84
2024/03/13 12:08:17;;;;;;;42.38;21.77;;;12.20;99.90;;;;;;4979881;28;20057;-84
2024/03/13 12:10:56;;;;;;;42.30;22.08;;;12.20;99.90;;;;;;4976933;28;20037;-85
2024/03/13 12:13:22;;;;;;;40.03;19.90;;;12.20;99.90;;;;;;4979341;28;20030;-84
2024/03/13 12:15:48;;;;;;;40.85;21.02;;;12.20;99.90;;;;;;4979047;28;20036;-84
2024/03/13 12:18:16;;;;;;;40.17;18.90;;;12.20;99.90;;;;;;4980009;28;20114;-85
2024/03/13 12:20:42;;;;;;;38.97;19.45;;;12.20;99.90;;;;;;4972589;28;20035;-84
2024/03/13 12:23:12;;;;;;;31.02;17.35;;;12.30;99.90;;;;;;4969488;28;20030;-85
2024/03/13 12:25:38;;;;;;;31.42;17.30;;;12.30;99.90;;;;;;4972303;28;20069;-85
2024/03/13 12:28:12;;;;;;;34.03;17.55;;;12.20;99.90;;;;;;4989691;28;20050;-85
2024/03/13 12:30:38;;;;;;;34.83;18.13;;;12.30;99.90;;;;;;4969189;28;20562;-84
2024/03/13 12:33:05;;;;;;;35.00;17.20;;;12.30;99.90;;;;;;4990281;28;20101;-85
2024/03/13 12:35:34;;;;;;;35.30;18.50;;;12.40;99.90;;;;;;4972825;28;20543;-84
2024/03/13 12:37:59;;;;;;;31.92;16.70;;;12.50;99.90;;;;;;4966214;28;20507;-85
2024/03/13 12:40:26;;;;;;;26.48;15.50;;;12.60;99.90;;;;;;4967651;28;20077;-84
2024/03/13 12:42:52;;;;;;;33.05;16.73;;;12.70;99.90;;;;;;4978002;28;20402;-83
2024/03/13 12:45:18;;;;;;;31.50;16.85;;;12.80;99.90;;;;;;4975281;28;20038;-85
2024/03/13 12:47:45;;;;;;;30.55;17.75;;;12.90;99.90;;;;;;4978526;28;20528;-83
2024/03/13 12:50:15;;;;;;;27.52;16.73;;;12.90;99.90;;;;;;4978622;28;20045;-84